Time;durP1;ratioP1;P1;durP2;ratioP2;P2;SDS_P1;SDS_P2;PMS_P1;PMS_P2;Temp;Humidity;BMP_temperature;BMP_pressure;BME280_temperature;BME280_humidity;BME280_pressure;Samples;Min_cycle;Max_cycle;Signal;HPM_P1;HPM_P2
2022/06/23 00:01:12;;;;;;;;;10.00;8.33;;;;;;;;6490380;46;8941;-60
2022/06/23 00:07:24;;;;;;;;;9.33;9.33;;;;;;;;6491042;39;8930;-61
2022/06/23 00:13:33;;;;;;;;;9.50;9.50;;;;;;;;6491207;39;8860;-61
2022/06/23 00:19:37;;;;;;;;;11.67;11.67;;;;;;;;6491481;31;9075;-61
2022/06/23 00:25:42;;;;;;;;;11.33;9.67;;;;;;;;6490475;39;8897;-63
2022/06/23 00:31:53;;;;;;;;;13.00;11.33;;;;;;;;6491734;31;8848;-62
2022/06/23 00:37:55;;;;;;;;;12.00;12.00;;;;;;;;6490833;46;8854;-60
2022/06/23 00:44:07;;;;;;;;;10.00;10.00;;;;;;;;6491157;31;8852;-61
2022/06/23 00:50:15;;;;;;;;;10.33;9.33;;;;;;;;6491336;39;8850;-59
2022/06/23 00:56:37;;;;;;;;;12.00;12.00;;;;;;;;6490253;39;8959;-60
2022/06/23 01:02:47;;;;;;;;;9.67;9.67;;;;;;;;6490358;47;8873;-60
2022/06/23 01:09:19;;;;;;;;;8.00;8.00;;;;;;;;6490369;47;8943;-62
2022/06/23 01:15:33;;;;;;;;;7.33;7.33;;;;;;;;6489968;39;8879;-62
2022/06/23 01:21:53;;;;;;;;;9.33;9.33;;;;;;;;6490920;39;8864;-61
2022/06/23 01:28:19;;;;;;;;;12.00;12.00;;;;;;;;6489820;39;8841;-61
2022/06/23 01:34:45;;;;;;;;;9.67;9.67;;;;;;;;6490597;39;8868;-62
2022/06/23 01:40:46;;;;;;;;;10.67;10.67;;;;;;;;6489935;31;8858;-61
2022/06/23 01:46:51;;;;;;;;;12.00;12.00;;;;;;;;6489864;47;9926;-61
2022/06/23 01:53:22;;;;;;;;;13.00;13.00;;;;;;;;6535724;36;10083;-59
2022/06/23 01:59:32;;;;;;;;;12.33;11.00;;;;;;;;6491615;39;8924;-60
2022/06/23 02:05:47;;;;;;;;;23.00;23.00;;;;;;;;6492210;39;8886;-61
2022/06/23 02:11:52;;;;;;;;;24.67;22.67;;;;;;;;6491554;39;8872;-60
2022/06/23 02:18:05;;;;;;;;;26.00;22.33;;;;;;;;6492125;39;9671;-61
2022/06/23 02:24:21;;;;;;;;;20.67;15.67;;;;;;;;6492385;39;9554;-61
2022/06/23 02:30:34;;;;;;;;;19.00;16.33;;;;;;;;6492143;39;9641;-61
2022/06/23 02:36:54;;;;;;;;;17.33;16.00;;;;;;;;6491803;39;8904;-62
2022/06/23 02:43:27;;;;;;;;;19.00;19.00;;;;;;;;6491700;39;8905;-61
2022/06/23 02:49:57;;;;;;;;;19.50;18.50;;;;;;;;6492221;39;8864;-60
2022/06/23 02:56:09;;;;;;;;;20.67;15.33;;;;;;;;6492525;31;8921;-61
2022/06/23 03:02:16;;;;;;;;;20.33;20.33;;;;;;;;6491455;39;9901;-60
2022/06/23 03:08:39;;;;;;;;;19.67;17.33;;;;;;;;6491589;39;8837;-60
2022/06/23 03:15:01;;;;;;;;;18.67;15.67;;;;;;;;6492185;39;8848;-61
2022/06/23 03:21:12;;;;;;;;;20.00;19.00;;;;;;;;6490746;46;8905;-61
2022/06/23 03:27:22;;;;;;;;;20.00;20.00;;;;;;;;6491718;31;9562;-62
2022/06/23 03:33:43;;;;;;;;;17.33;17.33;;;;;;;;6491023;39;8873;-62
2022/06/23 03:46:32;;;;;;;;;20.33;19.67;;;;;;;;6491475;39;9619;-62
2022/06/23 03:52:57;;;;;;;;;20.67;19.33;;;;;;;;6491702;39;8983;-61
2022/06/23 03:59:44;;;;;;;;;17.33;17.33;;;;;;;;6490980;39;9057;-60
2022/06/23 04:05:56;;;;;;;;;15.33;15.33;;;;;;;;6464563;39;9002;-60
2022/06/23 04:12:06;;;;;;;;;17.33;15.33;;;;;;;;6493711;39;8925;-61
2022/06/23 04:18:19;;;;;;;;;18.33;13.67;;;;;;;;6492017;31;8888;-62
2022/06/23 04:24:25;;;;;;;;;19.67;18.67;;;;;;;;6492799;39;8842;-63
